createdAt,value
2017-09-18T00:01:58.823Z,8.20
2017-09-18T00:07:00.770Z,8.73
2017-09-18T00:12:02.755Z,8.53
2017-09-18T00:17:04.695Z,6.77
2017-09-18T00:22:06.673Z,7.53
2017-09-18T00:27:08.680Z,7.90
2017-09-18T00:32:10.657Z,7.93
2017-09-18T00:37:13.454Z,7.73
2017-09-18T00:42:15.576Z,8.00
2017-09-18T00:47:18.480Z,7.40
2017-09-18T00:52:21.467Z,8.13
2017-09-18T00:57:23.479Z,8.43
2017-09-18T01:02:26.229Z,9.10
2017-09-18T01:07:28.217Z,8.00
2017-09-18T01:12:30.313Z,8.40
2017-09-18T01:17:33.053Z,8.20
2017-09-18T01:22:35.101Z,7.07
2017-09-18T01:27:37.091Z,7.63
2017-09-18T01:32:39.822Z,6.50
2017-09-18T01:37:41.828Z,6.90
2017-09-18T01:42:43.791Z,6.97
2017-09-18T01:47:45.811Z,7.47
2017-09-18T01:52:47.828Z,7.33
2017-09-18T01:57:49.812Z,7.50
2017-09-18T02:02:51.865Z,7.33
2017-09-18T02:07:54.925Z,6.87
2017-09-18T02:12:56.880Z,7.30
2017-09-18T02:17:59.550Z,7.47
2017-09-18T02:23:01.566Z,7.17
2017-09-18T02:28:03.514Z,7.50
2017-09-18T02:33:05.526Z,7.10
2017-09-18T02:38:07.526Z,6.50
2017-09-18T02:43:10.300Z,7.30
2017-09-18T02:48:12.348Z,7.23
2017-09-18T02:53:15.041Z,7.80
2017-09-18T02:58:17.031Z,7.10
2017-09-18T03:03:19.044Z,7.23
2017-09-18T03:08:21.046Z,7.27
2017-09-18T03:13:23.763Z,6.80
2017-09-18T03:18:25.772Z,7.30
2017-09-18T03:23:28.530Z,6.77
2017-09-18T03:28:35.720Z,7.90
2017-09-18T03:33:39.015Z,8.13
2017-09-18T03:38:41.160Z,8.30
2017-09-18T03:43:43.256Z,7.80
2017-09-18T03:48:45.265Z,9.03
2017-09-18T03:53:47.248Z,8.27
2017-09-18T03:58:49.362Z,8.07
2017-09-18T04:03:51.427Z,7.20
2017-09-18T04:08:54.496Z,7.70
2017-09-18T04:13:56.535Z,7.97
2017-09-18T04:18:58.650Z,9.23
2017-09-18T04:24:00.683Z,8.50
2017-09-18T04:29:04.386Z,8.77
2017-09-18T04:34:07.493Z,10.20
2017-09-18T04:39:09.486Z,7.10
2017-09-18T04:44:11.455Z,7.50
2017-09-18T04:49:13.845Z,8.47
2017-09-18T04:54:15.906Z,8.37
2017-09-18T04:59:17.933Z,8.47
2017-09-18T05:04:19.973Z,7.43
2017-09-18T05:09:23.923Z,8.60
2017-09-18T05:14:26.887Z,7.80
2017-09-18T05:19:28.816Z,8.77
2017-09-18T05:24:30.844Z,8.00
2017-09-18T05:29:33.582Z,7.90
2017-09-18T05:34:36.350Z,8.37
2017-09-18T05:39:38.266Z,8.67
2017-09-18T05:44:40.481Z,9.70
2017-09-18T05:49:42.479Z,9.03
2017-09-18T05:54:51.459Z,9.23
2017-09-18T05:59:59.612Z,8.73
2017-09-18T06:05:02.327Z,9.77
2017-09-18T06:10:05.534Z,8.77
2017-09-18T06:15:08.532Z,9.77
2017-09-18T06:20:10.737Z,9.03
2017-09-18T06:25:12.719Z,8.90
2017-09-18T06:30:14.782Z,10.27
2017-09-18T06:35:17.588Z,12.87
2017-09-18T06:40:20.668Z,12.90
2017-09-18T06:45:22.673Z,12.17
2017-09-18T06:50:25.590Z,11.93
2017-09-18T06:55:28.185Z,11.50
2017-09-18T07:00:30.467Z,9.30
2017-09-18T07:05:32.681Z,10.10
2017-09-18T07:10:35.245Z,9.00
2017-09-18T07:15:37.420Z,9.40
2017-09-18T07:20:39.594Z,10.17
2017-09-18T07:25:42.348Z,10.10
2017-09-18T07:30:44.522Z,11.33
2017-09-18T07:35:46.990Z,13.67
2017-09-18T07:40:50.153Z,13.40
2017-09-18T07:45:52.681Z,15.43
2017-09-18T07:50:55.471Z,15.80
2017-09-18T07:55:59.527Z,16.97
2017-09-18T08:01:01.950Z,14.90
2017-09-18T08:06:06.668Z,14.67
2017-09-18T08:11:12.115Z,13.40
2017-09-18T08:16:14.617Z,13.63
2017-09-18T08:21:19.229Z,13.20
2017-09-18T08:26:23.105Z,13.97
2017-09-18T08:31:26.099Z,13.33
2017-09-18T08:36:32.780Z,12.60
2017-09-18T08:41:35.182Z,13.30
2017-09-18T08:46:37.577Z,14.03
2017-09-18T08:51:39.525Z,13.17
2017-09-18T08:56:41.690Z,14.13
2017-09-18T09:01:43.654Z,14.90
2017-09-18T09:06:45.697Z,13.83
2017-09-18T09:11:48.165Z,13.70
2017-09-18T09:16:51.440Z,13.90
2017-09-18T09:21:55.948Z,13.77
2017-09-18T09:26:57.890Z,14.53
2017-09-18T09:32:02.491Z,14.53
2017-09-18T09:37:06.274Z,15.40
2017-09-18T09:42:08.295Z,14.07
2017-09-18T09:47:11.383Z,15.70
2017-09-18T09:52:13.411Z,15.50
2017-09-18T09:57:18.218Z,15.50
2017-09-18T10:02:20.188Z,16.63
2017-09-18T10:07:22.139Z,15.27
2017-09-18T10:12:24.906Z,14.83
2017-09-18T10:17:26.830Z,14.63
2017-09-18T10:22:28.923Z,16.30
2017-09-18T10:27:33.257Z,11.63
2017-09-18T10:32:35.218Z,11.50
2017-09-18T10:37:37.203Z,10.17
2017-09-18T10:42:39.217Z,10.50
2017-09-18T10:47:41.212Z,9.67
2017-09-18T10:52:43.233Z,9.30
2017-09-18T10:57:45.539Z,11.00
2017-09-18T11:02:47.556Z,10.13
2017-09-18T11:07:49.542Z,9.00
2017-09-18T11:12:51.464Z,9.20
2017-09-18T11:17:54.419Z,10.20
2017-09-18T11:22:57.557Z,10.43
2017-09-18T11:27:59.967Z,14.40
2017-09-18T11:33:01.995Z,16.57
2017-09-18T11:38:05.615Z,13.20
2017-09-18T11:43:07.620Z,14.90
2017-09-18T11:48:09.674Z,14.97
2017-09-18T11:53:12.674Z,17.47
2017-09-18T11:58:14.675Z,16.97
2017-09-18T12:03:16.788Z,15.90
2017-09-18T12:08:18.983Z,16.10
2017-09-18T12:13:21.007Z,16.70
2017-09-18T12:18:22.968Z,15.73
2017-09-18T12:23:24.961Z,16.83
2017-09-18T12:28:27.323Z,16.23
2017-09-18T12:33:36.210Z,17.33
2017-09-18T12:38:38.200Z,15.17
2017-09-18T12:43:40.610Z,17.30
2017-09-18T12:48:42.651Z,16.97
2017-09-18T12:53:45.052Z,15.73
2017-09-18T12:58:47.083Z,15.40
2017-09-18T13:03:49.834Z,16.17
2017-09-18T13:08:51.782Z,15.68
2017-09-18T13:13:53.741Z,17.60
2017-09-18T13:18:55.755Z,16.80
2017-09-18T13:23:57.954Z,15.60
2017-09-18T13:29:00.653Z,15.17
2017-09-18T13:34:02.843Z,13.53
2017-09-18T13:39:04.945Z,14.17
2017-09-18T13:44:06.914Z,13.30
2017-09-18T13:49:08.920Z,12.13
2017-09-18T13:54:12.655Z,12.53
2017-09-18T13:59:14.600Z,14.23
2017-09-18T14:04:16.563Z,11.57
2017-09-18T14:09:18.522Z,12.80
2017-09-18T14:14:20.474Z,13.97
2017-09-18T14:19:23.161Z,14.63
2017-09-18T14:24:25.327Z,14.83
2017-09-18T14:29:27.296Z,14.37
2017-09-18T14:34:29.266Z,15.83
2017-09-18T14:39:32.512Z,14.03
2017-09-18T14:44:34.479Z,14.67
2017-09-18T14:49:36.909Z,13.83
2017-09-18T14:54:38.894Z,12.30
2017-09-18T14:59:40.851Z,11.53
2017-09-18T15:04:43.018Z,11.47
2017-09-18T15:09:45.024Z,9.70
2017-09-18T15:14:47.031Z,10.57
2017-09-18T15:19:48.997Z,9.20
2017-09-18T15:24:50.980Z,7.60
2017-09-18T15:29:52.937Z,6.67
2017-09-18T15:34:55.157Z,7.10
2017-09-18T15:39:57.151Z,6.40
2017-09-18T15:44:59.914Z,3.00
2017-09-18T15:50:02.051Z,2.50
2017-09-18T15:55:04.784Z,2.80
2017-09-18T16:00:06.846Z,2.93
2017-09-18T16:05:09.217Z,3.37
2017-09-18T16:10:11.217Z,3.33
2017-09-18T16:15:13.214Z,3.27
2017-09-18T16:20:15.226Z,3.90
2017-09-18T16:25:17.288Z,3.80
2017-09-18T16:30:19.299Z,4.50
2017-09-18T16:35:22.145Z,6.37
2017-09-18T16:40:24.258Z,5.17
2017-09-18T16:45:26.554Z,5.47
2017-09-18T16:50:28.633Z,6.20
2017-09-18T16:55:31.256Z,6.60
2017-09-18T17:00:34.744Z,6.87
2017-09-18T17:05:39.688Z,6.57
2017-09-18T17:10:42.022Z,7.20
2017-09-18T17:15:44.518Z,7.90
2017-09-18T17:20:47.797Z,8.70
2017-09-18T17:25:49.920Z,9.50
2017-09-18T17:30:58.160Z,9.90
2017-09-18T17:36:00.159Z,9.37
2017-09-18T17:41:03.207Z,10.30
2017-09-18T17:46:06.813Z,10.33
2017-09-18T17:51:09.629Z,9.90
2017-09-18T17:56:11.614Z,9.90
2017-09-18T18:01:13.631Z,12.07
2017-09-18T18:06:16.017Z,11.20
2017-09-18T18:11:18.189Z,11.30
2017-09-18T18:16:20.439Z,12.67
2017-09-18T18:21:23.012Z,12.17
2017-09-18T18:26:24.963Z,13.30
2017-09-18T18:31:28.435Z,12.83
2017-09-18T18:36:30.890Z,13.40
2017-09-18T18:41:32.915Z,14.07
2017-09-18T18:46:34.879Z,13.57
2017-09-18T18:51:38.416Z,15.17
2017-09-18T18:56:40.446Z,16.50
2017-09-18T19:01:42.563Z,16.10
2017-09-18T19:06:44.603Z,17.27
2017-09-18T19:11:49.681Z,18.60
2017-09-18T19:16:55.719Z,17.67
2017-09-18T19:22:00.732Z,18.50
2017-09-18T19:27:02.805Z,17.03
2017-09-18T19:32:07.173Z,16.97
2017-09-18T19:37:09.507Z,17.90
2017-09-18T19:42:12.371Z,15.13
2017-09-18T19:47:14.854Z,13.67
2017-09-18T19:52:17.138Z,13.77
2017-09-18T19:57:19.465Z,13.20
2017-09-18T20:02:21.804Z,11.87
2017-09-18T20:07:24.307Z,12.57
2017-09-18T20:12:26.829Z,12.70
2017-09-18T20:17:30.014Z,13.00
2017-09-18T20:22:32.289Z,12.30
2017-09-18T20:27:34.702Z,10.97
2017-09-18T20:32:36.723Z,10.00
2017-09-18T20:37:39.238Z,10.17
2017-09-18T20:42:41.288Z,9.67
2017-09-18T20:47:43.374Z,9.80
2017-09-18T20:52:45.444Z,9.40
2017-09-18T20:57:47.416Z,9.70
2017-09-18T21:02:50.203Z,7.73
2017-09-18T21:07:52.968Z,7.97
2017-09-18T21:12:55.021Z,7.00
2017-09-18T21:17:56.974Z,6.67
2017-09-18T21:22:59.130Z,5.80
2017-09-18T21:28:01.189Z,5.73
2017-09-18T21:33:03.394Z,5.43
2017-09-18T21:38:05.379Z,5.60
2017-09-18T21:43:08.068Z,6.83
2017-09-18T21:48:10.068Z,6.37
2017-09-18T21:53:12.063Z,7.03
2017-09-18T21:58:14.062Z,6.70
2017-09-18T22:03:18.032Z,7.20
2017-09-18T22:08:20.334Z,8.03
2017-09-18T22:13:22.668Z,7.50
2017-09-18T22:18:24.663Z,8.27
2017-09-18T22:23:26.650Z,7.40
2017-09-18T22:28:28.675Z,7.47
2017-09-18T22:33:30.884Z,7.40
2017-09-18T22:38:33.702Z,7.73
2017-09-18T22:43:35.675Z,7.87
2017-09-18T22:48:37.663Z,8.00
2017-09-18T22:53:40.475Z,7.50
2017-09-18T22:58:42.587Z,8.07
2017-09-18T23:03:46.112Z,8.60
2017-09-18T23:08:48.188Z,8.07
2017-09-18T23:13:53.504Z,8.70
2017-09-18T23:18:55.456Z,8.47
2017-09-18T23:23:57.456Z,8.70
2017-09-18T23:28:59.539Z,8.60
2017-09-18T23:34:01.590Z,8.60
2017-09-18T23:39:03.895Z,8.27
2017-09-18T23:44:05.943Z,8.30
2017-09-18T23:49:08.657Z,8.40
2017-09-18T23:54:11.386Z,8.87
2017-09-18T23:59:13.375Z,9.23
